Time;durP1;ratioP1;P1;durP2;ratioP2;P2;SDS_P1;SDS_P2;PMS_P1;PMS_P2;Temp;Humidity;BMP_temperature;BMP_pressure;BME280_temperature;BME280_humidity;BME280_pressure;Samples;Min_cycle;Max_cycle;Signal;HPM_P1;HPM_P2
2021/08/09 00:00:08;;;;;;;5.45;1.80;;;;;;;19.44;77.86;100611.83;1695228;84;20964;-41
2021/08/09 00:02:37;;;;;;;5.85;2.42;;;;;;;19.46;77.60;100618.32;1695158;84;21043;-40
2021/08/09 00:05:06;;;;;;;2.77;2.47;;;;;;;19.45;77.53;100609.58;1695052;84;21588;-40
2021/08/09 00:07:34;;;;;;;4.80;2.05;;;;;;;19.41;77.60;100599.32;1695156;84;21012;-40
2021/08/09 00:10:00;;;;;;;6.15;2.17;;;;;;;19.39;77.73;100595.00;1695306;83;21007;-40
2021/08/09 00:12:28;;;;;;;3.92;2.22;;;;;;;19.40;78.04;100582.74;1695199;84;20995;-40
2021/08/09 00:14:56;;;;;;;7.40;1.98;;;;;;;19.38;78.10;100584.12;1695202;84;21040;-40
2021/08/09 00:17:22;;;;;;;6.87;2.30;;;;;;;19.37;78.12;100581.12;1695378;84;21751;-41
2021/08/09 00:19:49;;;;;;;3.55;1.90;;;;;;;19.33;78.10;100590.56;1695155;84;22306;-40
2021/08/09 00:22:16;;;;;;;4.70;1.90;;;;;;;19.29;77.96;100585.94;1695118;83;21035;-39
2021/08/09 00:24:42;;;;;;;3.45;1.92;;;;;;;19.26;78.05;100585.23;1694890;84;20940;-40
2021/08/09 00:27:08;;;;;;;3.77;2.22;;;;;;;19.24;78.28;100579.61;1695024;84;21541;-41
2021/08/09 00:29:35;;;;;;;2.87;1.95;;;;;;;19.23;78.46;100581.85;1695120;84;21884;-41
2021/08/09 00:32:03;;;;;;;13.78;2.30;;;;;;;19.21;78.59;100581.09;1695240;84;22196;-41
2021/08/09 00:34:30;;;;;;;6.45;1.98;;;;;;;19.19;78.66;100580.77;1642901;84;21058;-42
2021/08/09 00:36:57;;;;;;;4.58;1.72;;;;;;;19.16;78.66;100577.00;1695270;83;21007;-41
2021/08/09 00:39:26;;;;;;;2.70;2.12;;;;;;;19.14;78.81;100578.86;1695227;84;21003;-39
2021/08/09 00:41:53;;;;;;;2.65;1.95;;;;;;;19.09;78.82;100574.71;1694924;84;21695;-40
2021/08/09 00:44:21;;;;;;;5.35;2.00;;;;;;;19.08;78.82;100570.88;1694890;83;21022;-41
2021/08/09 00:46:48;;;;;;;2.33;1.98;;;;;;;19.06;78.92;100572.70;1665298;84;20952;-41
2021/08/09 00:49:16;;;;;;;3.55;2.20;;;;;;;19.06;79.00;100574.88;1695340;84;20999;-40
2021/08/09 00:51:43;;;;;;;4.00;1.98;;;;;;;19.04;79.13;100570.17;1695423;84;21482;-40
2021/08/09 00:54:11;;;;;;;8.28;2.08;;;;;;;19.04;79.14;100579.80;1695203;84;21360;-39
2021/08/09 00:56:41;;;;;;;2.25;2.10;;;;;;;19.01;79.17;100582.14;1695009;84;20956;-41
2021/08/09 00:59:07;;;;;;;3.30;2.55;;;;;;;19.00;79.36;100578.27;1695159;84;21051;-40
2021/08/09 01:01:34;;;;;;;3.00;2.25;;;;;;;18.98;79.53;100584.03;1695194;84;21043;-40
2021/08/09 01:04:03;;;;;;;6.60;2.30;;;;;;;18.98;79.51;100587.97;1695632;83;21030;-41
2021/08/09 01:06:30;;;;;;;3.58;2.08;;;;;;;18.99;79.50;100585.31;1710328;83;21129;-40
2021/08/09 01:09:25;;;;;;;3.72;1.95;;;;;;;18.99;79.59;100584.00;1700274;84;21463;-40
2021/08/09 01:12:05;;;;;;;7.50;2.87;;;;;;;18.98;79.73;100579.69;1710301;84;21034;-40
2021/08/09 01:14:54;;;;;;;8.20;2.55;;;;;;;18.92;79.83;100574.25;1693687;84;21011;-41
2021/08/09 01:17:23;;;;;;;3.58;2.80;;;;;;;18.89;80.03;100583.59;1684233;85;20949;-42
2021/08/09 01:20:28;;;;;;;7.22;1.98;;;;;;;18.89;80.09;100587.97;1684476;83;22162;-40
2021/08/09 01:23:20;;;;;;;3.37;2.20;;;;;;;18.89;80.15;100588.84;1700571;84;21011;-41
2021/08/09 01:25:59;;;;;;;5.53;2.05;;;;;;;18.86;80.36;100589.00;1710365;82;21044;-40
2021/08/09 01:28:31;;;;;;;2.33;2.12;;;;;;;18.81;80.54;100593.61;1700592;84;21002;-40
2021/08/09 01:30:59;;;;;;;3.92;2.35;;;;;;;18.76;80.82;100585.13;1710796;83;20984;-41
2021/08/09 01:33:28;;;;;;;2.12;2.00;;;;;;;18.72;81.01;100588.39;1700930;84;21984;-40
2021/08/09 01:35:55;;;;;;;3.20;2.00;;;;;;;18.71;81.12;100588.45;1710664;83;20952;-40
2021/08/09 01:38:25;;;;;;;3.00;2.25;;;;;;;18.68;81.30;100589.44;1700818;84;20900;-41
2021/08/09 01:40:58;;;;;;;3.00;2.45;;;;;;;18.64;81.60;100591.39;1710669;83;21012;-40
2021/08/09 01:43:22;;;;;;;2.85;2.20;;;;;;;18.61;81.78;100594.17;1699273;83;20988;-40
2021/08/09 01:45:49;;;;;;;4.28;2.10;;;;;;;18.60;81.88;100592.48;1684101;83;21209;-41
2021/08/09 01:48:16;;;;;;;2.17;1.98;;;;;;;18.57;82.15;100593.08;1700849;84;21043;-41
2021/08/09 01:50:44;;;;;;;4.65;2.42;;;;;;;18.52;82.28;100591.98;1710454;83;21639;-41
2021/08/09 01:53:12;;;;;;;2.08;1.90;;;;;;;18.50;82.52;100596.46;1700745;84;20987;-41
2021/08/09 01:55:40;;;;;;;2.85;2.22;;;;;;;18.46;82.71;100597.09;1710381;83;21406;-41
2021/08/09 01:58:07;;;;;;;3.45;2.20;;;;;;;18.43;82.93;100583.28;1700775;84;21137;-39
2021/08/09 02:00:35;;;;;;;2.85;1.92;;;;;;;18.41;83.07;100588.59;1710339;83;20948;-40
2021/08/09 02:03:02;;;;;;;2.52;2.08;;;;;;;18.38;83.29;100594.84;1700901;84;20968;-41
2021/08/09 02:05:29;;;;;;;8.23;2.37;;;;;;;18.37;83.44;100598.84;1704133;83;20952;-41
2021/08/09 02:08:00;;;;;;;5.20;2.33;;;;;;;18.35;83.57;100600.23;1671568;85;21007;-41
2021/08/09 02:10:29;;;;;;;3.30;2.35;;;;;;;18.32;83.71;100599.08;1735252;81;21137;-39
2021/08/09 02:13:18;;;;;;;4.03;2.12;;;;;;;18.29;83.81;100595.27;1734974;82;21545;-41
2021/08/09 02:16:07;;;;;;;9.00;2.47;;;;;;;18.28;84.24;100588.81;1734335;82;20933;-41
2021/08/09 02:19:01;;;;;;;4.28;2.12;;;;;;;18.31;84.70;100595.21;1734656;82;20953;-41
2021/08/09 02:21:31;;;;;;;11.65;2.60;;;;;;;18.34;84.81;100594.61;1735403;82;20989;-41
2021/08/09 02:24:09;;;;;;;16.57;2.65;;;;;;;18.31;84.74;100593.42;1735290;81;21121;-39
2021/08/09 02:27:00;;;;;;;5.25;2.47;;;;;;;18.30;84.83;100602.21;1735419;82;20992;-41
2021/08/09 02:29:31;;;;;;;3.62;2.72;;;;;;;18.30;84.85;100590.90;1735068;82;20941;-40
2021/08/09 02:31:58;;;;;;;3.62;2.40;;;;;;;18.29;84.69;100587.41;1714552;82;20909;-41
2021/08/09 02:34:26;;;;;;;2.25;2.05;;;;;;;18.31;84.68;100582.11;1714199;82;20949;-39
2021/08/09 02:36:53;;;;;;;4.42;2.00;;;;;;;18.31;84.65;100574.25;1735461;82;21034;-40
2021/08/09 02:39:20;;;;;;;3.33;2.25;;;;;;;18.32;84.83;100578.57;1735078;82;21495;-41
2021/08/09 02:41:48;;;;;;;3.87;2.00;;;;;;;18.31;84.76;100580.33;1735117;82;22574;-41
2021/08/09 02:44:15;;;;;;;5.03;2.25;;;;;;;18.33;84.69;100578.51;1714178;82;21094;-39
2021/08/09 02:46:44;;;;;;;2.50;2.30;;;;;;;18.31;84.62;100575.09;1735239;82;20929;-39
2021/08/09 02:49:11;;;;;;;4.83;2.30;;;;;;;18.31;84.62;100572.94;1735182;81;21298;-41
2021/08/09 02:51:39;;;;;;;2.42;2.30;;;;;;;18.30;84.62;100576.02;1735144;82;21023;-41
2021/08/09 02:54:05;;;;;;;6.12;2.35;;;;;;;18.31;84.65;100577.70;1735258;82;21017;-40
2021/08/09 02:56:32;;;;;;;7.55;2.22;;;;;;;18.32;84.70;100576.81;1735056;81;20933;-40
2021/08/09 02:59:00;;;;;;;4.70;2.22;;;;;;;18.34;84.72;100582.83;1735042;82;20964;-41
2021/08/09 03:01:28;;;;;;;8.50;2.58;;;;;;;18.37;84.72;100583.11;1735031;81;22023;-41
2021/08/09 03:03:58;;;;;;;3.75;2.72;;;;;;;18.38;84.69;100586.13;1734996;82;20980;-40
2021/08/09 03:06:26;;;;;;;8.00;2.50;;;;;;;18.41;84.61;100578.58;1747224;82;21498;-41
2021/08/09 03:08:53;;;;;;;8.28;2.35;;;;;;;18.45;84.59;100577.05;1749026;82;20932;-40
2021/08/09 03:11:21;;;;;;;2.62;2.42;;;;;;;18.48;84.58;100569.48;1749182;82;20885;-39
2021/08/09 03:13:49;;;;;;;4.65;2.33;;;;;;;18.51;84.56;100573.26;1721711;82;21129;-41
2021/08/09 03:16:15;;;;;;;3.77;2.27;;;;;;;18.52;84.51;100571.02;1748974;82;21070;-41
2021/08/09 03:18:42;;;;;;;3.52;2.22;;;;;;;18.55;84.44;100572.17;1748991;82;21003;-39
2021/08/09 03:21:09;;;;;;;3.80;2.27;;;;;;;18.57;84.44;100569.05;1749055;82;21012;-39
2021/08/09 03:23:36;;;;;;;10.63;2.08;;;;;;;18.60;84.32;100568.89;1721538;82;21525;-41
2021/08/09 03:26:04;;;;;;;5.92;2.50;;;;;;;18.65;84.23;100572.56;1748865;82;21083;-39
2021/08/09 03:28:32;;;;;;;3.47;2.60;;;;;;;18.69;84.16;100573.27;1748839;81;20976;-39
2021/08/09 03:31:00;;;;;;;7.95;2.80;;;;;;;18.72;84.06;100565.24;1749426;82;20984;-40
2021/08/09 03:33:26;;;;;;;4.87;2.58;;;;;;;18.78;84.06;100559.68;1749044;82;20960;-40
2021/08/09 03:35:53;;;;;;;8.15;3.12;;;;;;;18.82;84.02;100559.94;1749076;82;20967;-41
2021/08/09 03:38:19;;;;;;;6.55;2.60;;;;;;;18.87;83.98;100557.91;1748768;82;21062;-40
2021/08/09 03:40:48;;;;;;;11.97;2.90;;;;;;;18.91;83.89;100559.89;1748960;82;20936;-40
2021/08/09 03:43:14;;;;;;;13.35;3.22;;;;;;;18.96;83.89;100557.91;1749059;82;21020;-41
2021/08/09 03:45:41;;;;;;;9.90;3.12;;;;;;;19.02;83.95;100556.74;1721661;82;20992;-41
2021/08/09 03:48:10;;;;;;;4.65;2.65;;;;;;;19.11;83.70;100566.77;1748884;82;20897;-40
2021/08/09 03:50:37;;;;;;;4.83;2.70;;;;;;;19.20;83.30;100564.97;1749180;82;21114;-40
2021/08/09 03:53:05;;;;;;;7.60;3.02;;;;;;;19.31;83.18;100565.70;1749037;81;20987;-40
2021/08/09 03:55:33;;;;;;;4.78;3.25;;;;;;;19.46;82.98;100568.45;1749006;81;21651;-41
2021/08/09 03:57:59;;;;;;;4.87;2.70;;;;;;;19.61;82.35;100574.16;1748984;81;20936;-40
2021/08/09 04:00:26;;;;;;;5.60;2.55;;;;;;;19.79;81.96;100573.61;1749624;82;21234;-41
2021/08/09 04:02:53;;;;;;;5.10;3.12;;;;;;;19.99;81.31;100580.88;1749131;82;21118;-41
2021/08/09 04:05:22;;;;;;;2.35;2.25;;;;;;;20.22;80.34;100581.36;1743384;81;21529;-41
2021/08/09 04:07:50;;;;;;;7.37;2.90;;;;;;;20.44;79.86;100585.38;1734984;81;20932;-39
2021/08/09 04:10:18;;;;;;;6.22;2.45;;;;;;;20.64;78.98;100582.45;1734967;82;21028;-40
2021/08/09 04:12:44;;;;;;;3.75;2.55;;;;;;;20.83;78.13;100582.67;1735158;82;21046;-40
2021/08/09 04:15:13;;;;;;;6.22;2.77;;;;;;;20.94;76.82;100578.09;1735146;82;20937;-40
2021/08/09 04:17:40;;;;;;;11.73;3.00;;;;;;;21.01;76.45;100583.38;1734922;82;20960;-41
2021/08/09 04:20:10;;;;;;;6.28;2.92;;;;;;;21.11;76.22;100592.87;1714072;82;21561;-40
2021/08/09 04:22:37;;;;;;;6.28;2.60;;;;;;;21.28;75.99;100585.27;1735321;82;20906;-41
2021/08/09 04:25:06;;;;;;;5.90;2.55;;;;;;;21.46;75.15;100587.22;1734914;82;20964;-40
2021/08/09 04:27:33;;;;;;;6.83;2.98;;;;;;;21.60;74.69;100588.12;1714416;82;21004;-40
2021/08/09 04:30:00;;;;;;;8.18;2.95;;;;;;;21.75;74.04;100591.64;1735030;82;21450;-40
2021/08/09 04:32:37;;;;;;;4.83;3.50;;;;;;;21.92;73.37;100586.60;1735313;81;21008;-40
2021/08/09 04:35:09;;;;;;;6.47;2.87;;;;;;;21.99;72.86;100580.47;1716040;82;20976;-41
2021/08/09 04:37:36;;;;;;;8.35;2.72;;;;;;;21.98;72.20;100579.61;1735213;82;22079;-39
2021/08/09 04:40:06;;;;;;;11.80;2.65;;;;;;;22.02;72.27;100573.68;1734910;82;21171;-41
2021/08/09 04:42:37;;;;;;;8.30;3.00;;;;;;;22.08;72.72;100579.86;1735181;82;21008;-41
2021/08/09 04:45:06;;;;;;;7.20;3.00;;;;;;;22.19;72.73;100575.20;1734941;82;21435;-40
2021/08/09 04:47:34;;;;;;;6.78;3.30;;;;;;;22.37;71.83;100575.78;1690887;82;21019;-39
2021/08/09 04:50:01;;;;;;;5.83;3.02;;;;;;;22.56;70.99;100582.50;1735102;82;20924;-40
2021/08/09 04:52:29;;;;;;;5.80;2.95;;;;;;;22.74;70.86;100572.49;1735452;81;21808;-41
2021/08/09 04:54:56;;;;;;;4.58;2.60;;;;;;;22.96;69.84;100563.94;1735034;82;20961;-41
2021/08/09 04:57:22;;;;;;;7.65;3.17;;;;;;;23.07;68.92;100573.75;1735261;82;20948;-42
2021/08/09 04:59:49;;;;;;;4.55;2.83;;;;;;;23.18;69.06;100584.88;1735020;82;21019;-41
2021/08/09 05:02:16;;;;;;;6.12;3.17;;;;;;;23.36;68.13;100582.77;1735336;82;21544;-41
2021/08/09 05:04:43;;;;;;;4.35;3.12;;;;;;;23.38;67.27;100583.53;1734896;82;21730;-41
2021/08/09 05:07:09;;;;;;;6.45;3.30;;;;;;;23.43;67.23;100581.41;1742222;81;22158;-41
2021/08/09 05:09:36;;;;;;;5.37;3.60;;;;;;;23.48;67.31;100583.23;1713677;81;21632;-41
2021/08/09 05:12:04;;;;;;;6.00;3.55;;;;;;;23.67;66.90;100581.93;1743394;82;21017;-42
2021/08/09 05:14:33;;;;;;;7.10;3.30;;;;;;;23.87;66.03;100592.83;1743121;82;20995;-42
2021/08/09 05:17:00;;;;;;;5.70;3.83;;;;;;;24.04;65.62;100591.16;1743031;82;21149;-40
2021/08/09 05:21:44;;;;;;;9.68;3.50;;;;;;;24.23;63.96;100574.77;1797529;79;22575;-40
2021/08/09 05:24:11;;;;;;;4.30;3.20;;;;;;;24.07;64.38;100576.89;1737822;81;20940;-40
2021/08/09 05:26:37;;;;;;;5.60;3.30;;;;;;;24.16;65.07;100570.91;1757341;81;21759;-40
2021/08/09 05:29:05;;;;;;;8.10;3.45;;;;;;;24.19;64.65;100568.03;1757328;81;21548;-42
2021/08/09 05:31:32;;;;;;;13.85;3.87;;;;;;;24.21;64.22;100567.44;1757173;81;21457;-42
2021/08/09 05:33:58;;;;;;;7.55;4.00;;;;;;;24.29;64.59;100573.98;1757556;81;20920;-42
2021/08/09 05:36:26;;;;;;;11.50;3.92;;;;;;;24.41;64.45;100577.00;1757352;81;21944;-42
2021/08/09 05:38:52;;;;;;;7.47;3.60;;;;;;;24.48;63.75;100570.78;1737926;81;21240;-41
2021/08/09 05:41:20;;;;;;;6.53;3.92;;;;;;;24.60;63.00;100566.36;1757089;80;21042;-41
2021/08/09 05:43:47;;;;;;;5.40;3.50;;;;;;;24.63;63.26;100561.69;1757488;81;21537;-42
2021/08/09 05:46:14;;;;;;;4.62;3.62;;;;;;;24.71;62.76;100558.93;1757145;80;20909;-42
2021/08/09 05:48:42;;;;;;;6.15;3.98;;;;;;;24.58;63.21;100555.88;1742429;81;21011;-41
2021/08/09 05:51:09;;;;;;;9.43;3.80;;;;;;;24.39;63.20;100561.27;1753025;81;21131;-42
2021/08/09 05:53:36;;;;;;;9.38;4.15;;;;;;;24.37;63.42;100562.33;1719897;82;21023;-39
2021/08/09 05:56:03;;;;;;;15.32;3.70;;;;;;;24.39;64.19;100557.30;1748986;82;21003;-41
2021/08/09 05:58:32;;;;;;;7.70;3.45;;;;;;;24.57;64.75;100561.31;1747237;82;20920;-41
2021/08/09 06:00:59;;;;;;;6.17;3.35;;;;;;;24.81;64.51;100554.63;1749055;82;20975;-40
2021/08/09 06:03:26;;;;;;;9.15;3.60;;;;;;;24.92;62.95;100555.98;1749072;82;21572;-41
2021/08/09 06:05:58;;;;;;;6.67;3.90;;;;;;;25.05;62.60;100558.98;1748843;81;21018;-41
2021/08/09 06:08:26;;;;;;;7.35;3.72;;;;;;;25.09;61.25;100559.09;1748865;80;20920;-42
2021/08/09 06:10:54;;;;;;;9.88;3.62;;;;;;;24.94;60.87;100551.41;1748883;82;20963;-41
2021/08/09 06:13:21;;;;;;;9.58;4.30;;;;;;;24.78;62.61;100557.05;1748987;80;20979;-40
2021/08/09 06:15:49;;;;;;;5.47;4.00;;;;;;;24.91;62.90;100552.12;1748968;82;21027;-42
2021/08/09 06:18:17;;;;;;;8.68;4.05;;;;;;;25.05;62.26;100547.06;1748792;81;20980;-42
2021/08/09 06:20:45;;;;;;;9.73;3.90;;;;;;;25.03;61.65;100549.85;1749300;81;20948;-41
2021/08/09 06:23:13;;;;;;;7.85;4.30;;;;;;;25.11;62.60;100549.22;1749629;82;21007;-41
2021/08/09 06:25:42;;;;;;;12.65;3.85;;;;;;;25.24;62.00;100550.42;1749832;82;21006;-42
2021/08/09 06:28:10;;;;;;;17.75;5.03;;;;;;;25.34;61.72;100555.36;1749953;82;21917;-42
2021/08/09 06:30:37;;;;;;;11.15;4.65;;;;;;;25.44;61.56;100550.64;1749690;82;21003;-41
2021/08/09 06:33:04;;;;;;;10.75;4.00;;;;;;;25.48;61.75;100562.23;1749341;82;21573;-42
2021/08/09 06:35:31;;;;;;;38.58;6.20;;;;;;;25.62;61.41;100570.88;1749346;82;21470;-41
2021/08/09 06:37:58;;;;;;;14.80;4.30;;;;;;;25.72;60.81;100567.00;1749097;82;21683;-40
2021/08/09 06:40:25;;;;;;;8.15;3.92;;;;;;;25.83;60.93;100577.59;1749379;82;22252;-41
2021/08/09 06:42:52;;;;;;;5.10;3.60;;;;;;;25.93;58.58;100569.23;1721582;82;21561;-42
2021/08/09 06:45:23;;;;;;;10.28;4.12;;;;;;;25.99;59.09;100574.52;1748926;82;21003;-40
2021/08/09 06:47:50;;;;;;;6.08;3.67;;;;;;;26.03;58.27;100577.77;1749160;82;20940;-43
2021/08/09 06:50:18;;;;;;;19.25;4.42;;;;;;;26.17;57.85;100569.53;1749083;82;21062;-40
2021/08/09 06:52:45;;;;;;;7.28;4.30;;;;;;;26.31;58.13;100573.69;1749305;82;21791;-42
2021/08/09 06:55:12;;;;;;;11.53;4.65;;;;;;;26.48;56.88;100571.44;1749041;81;21015;-41
2021/08/09 06:57:39;;;;;;;17.98;4.30;;;;;;;26.49;57.72;100572.62;1749183;82;20928;-41
2021/08/09 07:00:07;;;;;;;23.80;4.95;;;;;;;26.60;57.95;100560.27;1749442;82;20901;-40
2021/08/09 07:02:34;;;;;;;20.30;4.30;;;;;;;26.65;57.34;100562.04;1721788;82;21518;-42
2021/08/09 07:05:01;;;;;;;13.72;3.98;;;;;;;26.78;57.48;100573.78;1749269;82;21880;-40
2021/08/09 07:07:27;;;;;;;8.10;3.65;;;;;;;26.97;56.57;100567.75;1749233;82;21447;-41
2021/08/09 07:09:54;;;;;;;6.42;3.35;;;;;;;27.09;56.37;100563.19;1749362;82;20974;-42
2021/08/09 07:12:20;;;;;;;10.48;4.00;;;;;;;27.19;56.08;100563.23;1749205;82;21521;-42
2021/08/09 07:14:47;;;;;;;8.75;4.10;;;;;;;27.42;55.45;100561.22;1749101;81;20963;-41
2021/08/09 07:17:14;;;;;;;13.32;3.45;;;;;;;27.47;52.71;100557.66;1749325;82;21115;-41
2021/08/09 07:19:42;;;;;;;13.28;3.58;;;;;;;27.40;53.87;100554.70;1749212;82;21015;-42
2021/08/09 07:22:08;;;;;;;9.58;3.62;;;;;;;27.44;54.92;100556.61;1749069;81;20924;-41
2021/08/09 07:24:36;;;;;;;12.65;3.50;;;;;;;27.62;54.11;100554.63;1721385;82;20980;-42
2021/08/09 07:27:04;;;;;;;15.85;3.83;;;;;;;27.87;54.10;100565.70;1749282;82;21540;-42
2021/08/09 07:29:31;;;;;;;24.18;4.28;;;;;;;28.06;52.35;100561.73;1749381;82;21100;-42
2021/08/09 07:31:58;;;;;;;12.13;3.45;;;;;;;28.22;51.96;100552.39;1721313;82;21477;-41
2021/08/09 07:34:25;;;;;;;10.65;3.50;;;;;;;28.29;51.43;100557.95;1749168;82;22161;-42
2021/08/09 07:36:52;;;;;;;14.20;3.60;;;;;;;28.30;50.63;100556.50;1749091;80;20971;-42
2021/08/09 07:39:19;;;;;;;12.00;3.95;;;;;;;28.47;52.22;100552.77;1749252;80;20984;-41
2021/08/09 07:41:45;;;;;;;7.85;3.30;;;;;;;28.74;50.97;100561.30;1749235;82;21867;-42
2021/08/09 07:44:12;;;;;;;10.28;3.30;;;;;;;29.07;50.20;100553.80;1749106;82;21597;-41
2021/08/09 07:46:38;;;;;;;12.35;3.15;;;;;;;29.35;50.68;100562.27;1749128;82;20992;-42
2021/08/09 07:49:05;;;;;;;15.55;4.28;;;;;;;29.51;49.24;100563.83;1749259;82;21063;-41
2021/08/09 07:51:33;;;;;;;6.92;3.15;;;;;;;29.63;47.99;100565.78;1748966;82;21565;-42
2021/08/09 07:54:00;;;;;;;8.58;3.08;;;;;;;29.75;46.69;100561.07;1749120;82;22840;-41
2021/08/09 07:56:26;;;;;;;7.55;3.42;;;;;;;29.70;44.47;100558.02;1749013;82;21513;-40
2021/08/09 07:58:54;;;;;;;13.72;3.42;;;;;;;29.79;44.93;100561.11;1721589;82;21481;-40
2021/08/09 08:01:21;;;;;;;15.98;3.47;;;;;;;30.01;44.73;100556.78;1749011;81;21034;-41
2021/08/09 08:03:48;;;;;;;10.53;3.45;;;;;;;30.36;43.66;100554.59;1749258;82;20976;-41
2021/08/09 08:06:14;;;;;;;14.73;3.30;;;;;;;30.63;42.71;100559.47;1749526;80;21796;-42
2021/08/09 08:08:42;;;;;;;13.13;3.15;;;;;;;30.81;42.95;100559.92;1749086;82;20936;-41
2021/08/09 08:11:10;;;;;;;8.43;2.90;;;;;;;31.04;39.54;100550.83;1749255;82;20964;-40
2021/08/09 08:13:39;;;;;;;8.93;3.15;;;;;;;31.18;38.88;100548.55;1749147;82;20997;-41
2021/08/09 08:16:08;;;;;;;7.20;3.12;;;;;;;31.33;39.93;100550.14;1749188;80;21549;-42
2021/08/09 08:18:36;;;;;;;12.85;3.25;;;;;;;31.48;36.92;100553.86;1749198;82;21497;-43
2021/08/09 08:21:06;;;;;;;4.50;2.80;;;;;;;31.59;37.20;100555.87;1744552;81;20922;-42
2021/08/09 08:23:32;;;;;;;12.73;2.92;;;;;;;31.72;38.31;100556.73;1734600;82;20944;-42
2021/08/09 08:25:59;;;;;;;8.95;2.98;;;;;;;31.85;38.26;100554.94;1734784;82;21574;-42
2021/08/09 08:28:26;;;;;;;9.98;2.87;;;;;;;32.06;36.27;100556.63;1735070;82;21589;-42
2021/08/09 08:30:53;;;;;;;4.50;2.92;;;;;;;32.26;36.04;100562.98;1735049;82;21079;-43
2021/08/09 08:33:20;;;;;;;12.07;2.98;;;;;;;32.44;35.49;100561.97;1735377;81;21620;-43
2021/08/09 08:35:46;;;;;;;10.03;3.25;;;;;;;32.60;35.37;100557.93;1714055;82;22357;-42
2021/08/09 08:38:13;;;;;;;5.97;2.92;;;;;;;32.77;35.90;100554.70;1714398;82;20953;-43
2021/08/09 08:40:49;;;;;;;9.73;2.55;;;;;;;32.93;35.37;100554.34;1735148;82;21451;-41
2021/08/09 08:43:25;;;;;;;13.48;2.55;;;;;;;32.85;34.76;100552.50;1735139;82;22334;-42
2021/08/09 08:45:57;;;;;;;4.72;2.67;;;;;;;32.67;33.73;100554.89;1735100;81;20992;-41
2021/08/09 08:48:24;;;;;;;4.15;2.98;;;;;;;32.46;35.25;100557.27;1735193;82;21387;-43
2021/08/09 08:50:52;;;;;;;11.78;3.00;;;;;;;32.64;33.28;100557.91;1714085;82;21004;-42
2021/08/09 08:53:19;;;;;;;11.45;2.67;;;;;;;32.85;32.42;100561.88;1735126;82;21003;-41
2021/08/09 08:55:46;;;;;;;14.05;2.52;;;;;;;33.03;32.50;100566.20;1735041;82;21892;-42
2021/08/09 08:58:13;;;;;;;10.63;2.85;;;;;;;33.36;32.08;100563.36;1735294;81;21531;-41
2021/08/09 09:00:42;;;;;;;9.15;2.60;;;;;;;33.61;31.49;100560.07;1734955;82;20905;-43
2021/08/09 09:03:23;;;;;;;5.10;2.40;;;;;;;33.78;31.76;100564.80;1735045;82;21605;-42
2021/08/09 09:06:04;;;;;;;5.10;2.22;;;;;;;33.90;31.86;100559.00;1732136;82;20941;-41
2021/08/09 09:08:44;;;;;;;9.23;3.80;;;;;;;33.68;33.71;100562.85;1713642;82;21975;-41
2021/08/09 09:11:24;;;;;;;6.95;3.58;;;;;;;33.52;38.90;100567.33;1735073;82;20933;-42
2021/08/09 09:14:00;;;;;;;9.98;3.70;;;;;;;33.05;41.82;100566.87;1713814;82;20957;-41
2021/08/09 09:16:45;;;;;;;8.53;3.90;;;;;;;32.62;43.63;100559.93;1735205;81;20973;-40
2021/08/09 09:19:36;;;;;;;15.23;3.92;;;;;;;32.40;43.58;100558.81;1738417;82;21534;-42
2021/08/09 09:22:06;;;;;;;14.78;4.12;;;;;;;32.32;43.78;100552.96;1731471;81;21110;-42
2021/08/09 09:24:34;;;;;;;19.40;4.17;;;;;;;32.46;42.75;100546.56;1738464;82;20981;-40
2021/08/09 09:27:07;;;;;;;11.80;3.75;;;;;;;32.32;43.41;100550.28;1734983;82;21019;-41
2021/08/09 09:29:38;;;;;;;20.15;3.60;;;;;;;32.16;44.84;100544.91;1734822;82;21047;-42
2021/08/09 09:32:22;;;;;;;10.20;3.37;;;;;;;32.14;45.57;100541.08;1735051;82;21112;-43
2021/08/09 09:34:57;;;;;;;10.53;3.92;;;;;;;32.33;42.22;100539.91;1734811;81;21019;-40
2021/08/09 09:37:31;;;;;;;15.28;4.55;;;;;;;32.26;44.63;100550.94;1734976;82;20976;-41
2021/08/09 09:40:12;;;;;;;13.58;4.35;;;;;;;32.30;44.24;100554.09;1734939;82;22110;-40
2021/08/09 09:42:41;;;;;;;29.60;4.17;;;;;;;32.40;43.67;100548.10;1735138;82;21000;-40
2021/08/09 09:45:29;;;;;;;16.48;4.47;;;;;;;32.48;44.05;100541.90;1734861;82;20932;-40
2021/08/09 09:48:06;;;;;;;14.83;4.17;;;;;;;32.64;43.14;100532.47;1734888;82;21167;-42
2021/08/09 09:50:35;;;;;;;12.50;3.72;;;;;;;32.93;43.78;100526.21;1714156;82;21071;-41
2021/08/09 09:53:22;;;;;;;17.92;3.80;;;;;;;33.18;43.37;100524.23;1734931;82;20968;-41
2021/08/09 09:55:53;;;;;;;10.63;3.60;;;;;;;33.33;42.24;100518.13;1735065;82;21542;-41
2021/08/09 09:58:19;;;;;;;9.88;3.58;;;;;;;33.44;40.45;100521.77;1735026;82;20980;-42
2021/08/09 10:00:46;;;;;;;10.58;3.75;;;;;;;33.29;41.38;100523.52;1714104;82;21177;-41
2021/08/09 10:03:13;;;;;;;9.48;3.42;;;;;;;33.17;42.37;100529.79;1735034;81;21051;-42
2021/08/09 10:05:42;;;;;;;14.95;4.10;;;;;;;33.13;43.44;100530.63;1734962;82;21577;-43
2021/08/09 10:08:16;;;;;;;14.83;4.12;;;;;;;33.09;44.27;100527.98;1735239;82;20937;-42
2021/08/09 10:10:48;;;;;;;22.58;4.00;;;;;;;32.87;44.87;100534.41;1735142;82;21015;-42
2021/08/09 10:13:23;;;;;;;50.45;5.10;;;;;;;32.87;44.53;100529.05;1734520;82;21142;-41
2021/08/09 10:15:56;;;;;;;16.50;4.08;;;;;;;32.93;43.73;100524.35;1735211;82;20980;-42
2021/08/09 10:18:32;;;;;;;16.73;3.80;;;;;;;33.06;44.14;100523.79;1735460;82;21004;-41
2021/08/09 10:21:02;;;;;;;17.70;3.83;;;;;;;33.32;43.21;100518.63;1714437;82;21015;-42
2021/08/09 10:23:47;;;;;;;19.17;4.12;;;;;;;33.58;42.65;100516.14;1749150;82;21015;-41
2021/08/09 10:26:17;;;;;;;40.20;5.20;;;;;;;33.65;41.00;100518.95;1749104;81;21102;-41
2021/08/09 10:29:00;;;;;;;18.50;3.92;;;;;;;33.44;41.75;100512.38;1721323;82;20936;-41
2021/08/09 10:31:29;;;;;;;9.35;3.92;;;;;;;33.64;43.06;100510.08;1749103;80;21015;-42
2021/08/09 10:33:57;;;;;;;21.33;3.77;;;;;;;33.89;41.97;100509.03;1749152;82;20992;-42
2021/08/09 10:36:24;;;;;;;26.73;4.53;;;;;;;33.91;42.79;100508.34;1749044;82;20979;-42
2021/08/09 10:38:54;;;;;;;12.15;3.85;;;;;;;34.01;42.54;100506.28;1749077;82;21130;-43
2021/08/09 10:41:33;;;;;;;22.67;4.67;;;;;;;33.96;42.18;100502.80;1749499;82;21022;-42
2021/08/09 10:44:12;;;;;;;34.78;5.75;;;;;;;34.01;42.32;100506.28;1749009;82;20971;-41
2021/08/09 10:46:43;;;;;;;59.67;8.18;;;;;;;34.08;41.57;100500.50;1721656;82;21015;-42
2021/08/09 10:49:46;;;;;;;75.62;8.05;;;;;;;33.98;40.96;100497.26;1721363;82;21072;-42
2021/08/09 10:52:15;;;;;;;10.08;4.58;;;;;;;33.47;43.64;100504.00;1749188;82;21100;-42
2021/08/09 10:54:41;;;;;;;26.00;4.22;;;;;;;33.30;42.32;100502.41;1721282;82;20909;-42
2021/08/09 10:57:07;;;;;;;66.57;7.25;;;;;;;32.93;43.69;100499.41;1749323;82;20975;-41
2021/08/09 10:59:45;;;;;;;45.83;7.45;;;;;;;32.89;43.44;100498.09;1721409;82;20988;-42
2021/08/09 11:02:23;;;;;;;33.83;5.37;;;;;;;32.76;43.00;100495.95;1721130;80;21552;-43
2021/08/09 11:05:15;;;;;;;59.42;6.83;;;;;;;32.58;43.17;100494.33;1749114;82;21138;-42
2021/08/09 11:07:44;;;;;;;43.50;5.80;;;;;;;32.44;43.80;100488.33;1749395;82;20940;-43
2021/08/09 11:10:12;;;;;;;50.95;5.78;;;;;;;32.59;44.60;100498.67;1749099;82;20991;-42
2021/08/09 11:12:59;;;;;;;40.63;5.53;;;;;;;32.66;44.05;100484.91;1749195;82;20936;-43
2021/08/09 11:15:28;;;;;;;38.42;4.83;;;;;;;32.83;45.29;100483.52;1749308;82;21425;-42
2021/08/09 11:17:58;;;;;;;33.25;5.70;;;;;;;33.24;44.18;100482.48;1749300;82;20996;-46
2021/08/09 11:20:32;;;;;;;40.85;5.42;;;;;;;33.49;42.39;100479.17;1748916;82;20980;-41
2021/08/09 11:23:08;;;;;;;35.17;5.85;;;;;;;33.50;43.88;100474.14;1739117;82;20972;-41
2021/08/09 11:25:48;;;;;;;44.42;5.85;;;;;;;33.60;42.29;100476.59;1735123;81;21506;-40
2021/08/09 11:28:24;;;;;;;27.22;4.33;;;;;;;33.75;44.54;100475.28;1735190;82;21232;-41
2021/08/09 11:30:53;;;;;;;;;;;;;;;34.03;41.48;100473.38;1737751;82;21153;-42
2021/08/09 11:33:36;;;;;;;85.75;8.23;;;;;;;34.23;40.08;100475.51;1714090;82;20107;-42
2021/08/09 11:36:10;;;;;;;31.35;4.25;;;;;;;33.99;41.17;100466.72;1735069;81;21044;-41